Time;durP1;ratioP1;P1;durP2;ratioP2;P2;SDS_P1;SDS_P2;PMS_P1;PMS_P2;Temp;Humidity;BMP_temperature;BMP_pressure;BME280_temperature;BME280_humidity;BME280_pressure;Samples;Min_cycle;Max_cycle;Signal;HPM_P1;HPM_P2
2023/05/28 00:00:11;;;;;;;42.92;36.70;;;23.30;39.10;;;;;;5052752;28;20450;-64
2023/05/28 00:02:41;;;;;;;42.08;35.40;;;23.30;39.80;;;;;;5038332;28;20032;-63
2023/05/28 00:05:08;;;;;;;43.53;36.85;;;23.20;39.10;;;;;;5056681;28;20309;-61
2023/05/28 00:07:33;;;;;;;40.17;35.25;;;23.20;39.20;;;;;;5057032;28;20723;-62
2023/05/28 00:09:59;;;;;;;43.22;37.10;;;23.20;39.30;;;;;;5053255;28;20143;-62
2023/05/28 00:12:26;;;;;;;46.25;36.85;;;23.20;39.40;;;;;;5041513;28;20035;-63
2023/05/28 00:14:52;;;;;;;44.35;35.90;;;23.20;39.40;;;;;;5050370;28;20123;-63
2023/05/28 00:17:17;;;;;;;43.33;37.00;;;23.20;39.50;;;;;;5055964;28;20056;-61
2023/05/28 00:19:44;;;;;;;45.35;38.38;;;23.20;39.60;;;;;;5058495;28;20082;-61
2023/05/28 00:22:10;;;;;;;40.97;36.38;;;23.20;39.70;;;;;;5055634;28;20036;-63
2023/05/28 00:24:36;;;;;;;44.40;35.95;;;23.20;39.80;;;;;;5045360;28;20048;-63
2023/05/28 00:27:03;;;;;;;43.72;36.50;;;23.20;39.80;;;;;;5056688;28;20025;-61
2023/05/28 00:29:29;;;;;;;40.80;34.72;;;23.20;40.00;;;;;;5042694;28;20110;-62
2023/05/28 00:31:56;;;;;;;40.45;34.67;;;23.20;40.00;;;;;;5038512;28;20037;-64
2023/05/28 00:34:26;;;;;;;44.78;37.08;;;23.20;40.10;;;;;;5062223;28;20020;-62
2023/05/28 00:36:53;;;;;;;42.38;36.25;;;23.20;40.20;;;;;;5040905;28;20021;-62
2023/05/28 00:39:20;;;;;;;44.53;36.67;;;23.10;40.30;;;;;;5055501;28;20048;-66
2023/05/28 00:41:46;;;;;;;42.22;35.92;;;23.10;40.30;;;;;;5055227;28;20507;-65
2023/05/28 00:44:12;;;;;;;44.28;36.67;;;23.10;40.40;;;;;;5059064;28;20333;-62
2023/05/28 00:46:44;;;;;;;43.60;37.13;;;23.10;40.40;;;;;;5057944;28;20431;-62
2023/05/28 00:49:11;;;;;;;49.28;36.25;;;23.10;40.50;;;;;;5034946;28;20048;-62
2023/05/28 00:51:39;;;;;;;51.75;36.33;;;23.10;40.60;;;;;;5034552;28;20025;-62
2023/05/28 00:54:05;;;;;;;45.83;36.65;;;23.10;40.60;;;;;;5039242;28;20033;-62
2023/05/28 00:56:34;;;;;;;44.05;35.15;;;23.10;40.70;;;;;;5037869;28;20040;-64
2023/05/28 00:59:01;;;;;;;44.92;35.53;;;23.10;40.80;;;;;;5061851;28;20029;-62
2023/05/28 01:01:27;;;;;;;43.50;35.47;;;23.10;40.80;;;;;;5055863;28;20021;-61
2023/05/28 01:03:54;;;;;;;45.20;36.67;;;23.00;40.80;;;;;;5062001;28;20048;-61
2023/05/28 01:06:21;;;;;;;45.95;36.92;;;23.10;40.90;;;;;;5057435;28;20033;-63
2023/05/28 01:08:48;;;;;;;42.88;36.28;;;23.00;41.00;;;;;;5041810;28;20154;-61
2023/05/28 01:11:18;;;;;;;43.53;36.47;;;23.10;41.10;;;;;;5038580;28;20104;-63
2023/05/28 01:13:46;;;;;;;42.90;35.30;;;23.10;41.10;;;;;;5061733;28;20076;-62
2023/05/28 01:16:13;;;;;;;40.47;33.70;;;23.00;41.20;;;;;;5038798;28;20124;-60
2023/05/28 01:18:40;;;;;;;42.10;34.75;;;23.00;41.20;;;;;;5038351;28;20129;-63
2023/05/28 01:21:08;;;;;;;45.42;36.22;;;23.00;41.30;;;;;;5039965;28;20021;-62
2023/05/28 01:23:45;;;;;;;38.85;33.67;;;23.00;41.30;;;;;;5055782;28;20123;-65
2023/05/28 01:26:15;;;;;;;42.13;35.72;;;23.00;41.40;;;;;;5036880;28;20445;-63
2023/05/28 01:28:48;;;;;;;45.10;36.45;;;23.00;41.50;;;;;;5035041;28;20337;-60
2023/05/28 01:31:15;;;;;;;43.13;35.75;;;23.00;41.50;;;;;;5040526;28;20437;-58
2023/05/28 01:33:44;;;;;;;39.75;34.10;;;23.00;41.60;;;;;;5037375;28;20438;-63
2023/05/28 01:36:35;;;;;;;41.92;35.28;;;23.00;41.60;;;;;;5023995;28;20023;-63
2023/05/28 01:39:02;;;;;;;42.85;35.40;;;23.00;41.70;;;;;;5038465;28;20077;-62
2023/05/28 01:41:29;;;;;;;40.72;34.70;;;23.00;41.70;;;;;;5040073;28;20028;-61
2023/05/28 01:43:57;;;;;;;42.53;34.63;;;22.90;41.70;;;;;;5035291;28;20347;-61
2023/05/28 01:46:24;;;;;;;45.42;36.78;;;22.90;41.80;;;;;;5035582;28;20092;-62
2023/05/28 01:48:51;;;;;;;41.40;34.92;;;22.90;41.80;;;;;;5034415;28;20043;-61
2023/05/28 01:51:21;;;;;;;41.97;34.70;;;22.90;41.90;;;;;;5040021;28;20265;-61
2023/05/28 01:53:47;;;;;;;45.85;36.65;;;22.90;41.90;;;;;;5038426;28;20098;-61
2023/05/28 01:56:13;;;;;;;42.25;36.08;;;22.90;41.90;;;;;;5038016;28;20389;-61
2023/05/28 01:58:40;;;;;;;44.45;36.20;;;22.90;42.00;;;;;;5037969;28;20405;-65
2023/05/28 02:01:07;;;;;;;43.47;35.63;;;22.90;42.00;;;;;;5036077;28;20069;-65
2023/05/28 02:03:33;;;;;;;42.00;34.40;;;22.90;42.00;;;;;;5039788;28;20036;-63
2023/05/28 02:05:58;;;;;;;42.63;36.10;;;22.90;42.00;;;;;;5039700;28;20037;-63
2023/05/28 02:08:24;;;;;;;43.05;34.85;;;22.90;42.00;;;;;;5039344;28;20125;-62
2023/05/28 02:10:52;;;;;;;41.28;34.78;;;22.90;42.10;;;;;;5054836;28;20087;-60
2023/05/28 02:13:18;;;;;;;42.75;35.28;;;22.90;42.10;;;;;;5060417;28;20079;-64
2023/05/28 02:15:44;;;;;;;41.60;35.63;;;22.90;42.10;;;;;;5033991;28;20028;-62
2023/05/28 02:18:10;;;;;;;42.65;35.95;;;22.80;42.10;;;;;;5037635;28;20036;-63
2023/05/28 02:20:36;;;;;;;43.00;35.85;;;22.80;42.10;;;;;;5036643;28;20082;-61
2023/05/28 02:23:02;;;;;;;38.15;33.45;;;22.80;42.10;;;;;;5053504;28;20041;-64
2023/05/28 02:25:28;;;;;;;42.72;36.13;;;22.90;42.20;;;;;;5034998;28;20052;-63
2023/05/28 02:27:54;;;;;;;43.88;35.33;;;22.80;42.10;;;;;;5056091;28;20367;-64
2023/05/28 02:30:20;;;;;;;43.28;35.72;;;22.80;42.20;;;;;;5039868;28;20354;-62
2023/05/28 02:32:47;;;;;;;45.78;36.72;;;22.80;42.20;;;;;;5035470;28;20017;-61
2023/05/28 02:35:16;;;;;;;44.05;35.60;;;22.80;42.20;;;;;;5038892;28;20029;-64
2023/05/28 02:37:43;;;;;;;42.30;35.20;;;22.80;42.20;;;;;;5054446;28;20025;-61
2023/05/28 02:40:09;;;;;;;42.28;35.10;;;22.80;42.20;;;;;;5035243;28;20111;-61
2023/05/28 02:42:36;;;;;;;44.80;35.13;;;22.80;42.20;;;;;;5035844;28;20025;-63
2023/05/28 02:45:02;;;;;;;44.50;36.70;;;22.80;42.20;;;;;;5057937;28;20144;-61
2023/05/28 02:47:28;;;;;;;42.20;34.75;;;22.80;42.20;;;;;;5040532;28;20041;-61
2023/05/28 02:49:54;;;;;;;42.55;35.40;;;22.80;42.20;;;;;;5039428;28;20028;-64
2023/05/28 02:52:20;;;;;;;42.30;34.97;;;22.70;42.20;;;;;;5035975;28;20025;-61
2023/05/28 02:54:46;;;;;;;41.08;34.88;;;22.80;42.30;;;;;;5035242;28;20063;-60
2023/05/28 02:57:12;;;;;;;45.13;36.65;;;22.80;42.30;;;;;;5034468;28;20029;-63
2023/05/28 02:59:38;;;;;;;42.35;35.85;;;22.80;42.60;;;;;;5060904;28;20044;-62
2023/05/28 03:02:04;;;;;;;42.90;36.17;;;22.70;42.40;;;;;;5037184;28;20028;-59
2023/05/28 03:04:30;;;;;;;41.72;35.85;;;22.80;42.50;;;;;;5033972;28;20037;-62
2023/05/28 03:06:56;;;;;;;42.08;35.55;;;22.70;42.40;;;;;;5034277;28;20461;-62
2023/05/28 03:09:22;;;;;;;42.35;35.50;;;22.70;42.50;;;;;;5038382;28;20090;-63
2023/05/28 03:11:48;;;;;;;42.55;35.67;;;22.70;42.50;;;;;;5024382;28;20029;-62
2023/05/28 03:14:15;;;;;;;38.42;34.17;;;22.70;42.50;;;;;;5039264;28;20408;-62
2023/05/28 03:16:41;;;;;;;41.33;33.95;;;22.70;42.50;;;;;;5032605;28;20025;-62
2023/05/28 03:19:16;;;;;;;40.17;33.80;;;22.70;42.50;;;;;;5038324;28;20029;-60
2023/05/28 03:21:42;;;;;;;37.67;31.00;;;22.70;42.60;;;;;;5027649;28;20458;-60
2023/05/28 03:24:09;;;;;;;40.22;32.55;;;22.70;42.60;;;;;;5034915;28;20041;-61
2023/05/28 03:26:41;;;;;;;39.28;31.58;;;22.70;42.60;;;;;;5036886;28;20097;-62
2023/05/28 03:29:07;;;;;;;39.15;32.33;;;22.70;42.60;;;;;;5038841;28;20037;-62
2023/05/28 03:31:46;;;;;;;37.45;31.25;;;22.70;42.60;;;;;;5039709;28;20061;-64
2023/05/28 03:34:13;;;;;;;35.72;30.67;;;22.70;42.60;;;;;;5052744;28;20132;-60
2023/05/28 03:36:42;;;;;;;38.83;30.60;;;22.70;42.60;;;;;;5037848;28;20021;-63
2023/05/28 03:39:10;;;;;;;36.08;29.38;;;22.60;42.60;;;;;;5034529;28;20025;-60
2023/05/28 03:41:36;;;;;;;37.50;30.02;;;22.70;42.60;;;;;;5042704;28;20037;-61
2023/05/28 03:44:04;;;;;;;34.95;28.58;;;22.60;42.60;;;;;;5032885;28;20317;-62
2023/05/28 03:46:30;;;;;;;36.08;28.10;;;22.60;42.60;;;;;;5037051;28;20101;-64
2023/05/28 03:48:56;;;;;;;36.95;30.35;;;22.60;42.60;;;;;;5017014;28;20087;-64
2023/05/28 03:51:25;;;;;;;35.08;28.13;;;22.60;42.60;;;;;;5032166;28;20096;-62
2023/05/28 03:53:51;;;;;;;32.22;27.20;;;22.60;42.60;;;;;;5035978;28;20029;-61
2023/05/28 03:56:19;;;;;;;34.58;27.75;;;22.60;42.60;;;;;;5037581;28;20033;-63
2023/05/28 03:58:46;;;;;;;33.47;26.90;;;22.60;42.70;;;;;;5038862;28;20025;-65
2023/05/28 04:01:12;;;;;;;32.70;25.80;;;22.60;42.70;;;;;;5036638;28;20039;-63
2023/05/28 04:03:38;;;;;;;33.08;25.98;;;22.60;42.70;;;;;;5039306;28;20116;-63
2023/05/28 04:06:06;;;;;;;28.13;24.05;;;22.60;42.70;;;;;;5038041;28;20420;-61
2023/05/28 04:08:32;;;;;;;29.05;24.50;;;22.60;42.70;;;;;;5036014;28;20170;-65
2023/05/28 04:10:58;;;;;;;31.02;24.67;;;22.60;42.70;;;;;;5041584;28;20029;-61
2023/05/28 04:13:24;;;;;;;30.50;25.08;;;22.60;42.70;;;;;;5038278;28;20298;-62
2023/05/28 04:15:51;;;;;;;29.92;24.73;;;22.60;42.70;;;;;;5036072;28;20068;-63
2023/05/28 04:18:16;;;;;;;28.67;22.58;;;22.60;42.70;;;;;;5042415;28;20819;-62
2023/05/28 04:20:43;;;;;;;27.63;22.73;;;22.60;42.70;;;;;;5038382;28;20035;-61
2023/05/28 04:23:09;;;;;;;29.35;23.60;;;22.60;42.70;;;;;;5042840;28;20337;-60
2023/05/28 04:25:36;;;;;;;28.30;22.40;;;22.60;43.30;;;;;;5035434;28;20148;-61
2023/05/28 04:28:04;;;;;;;29.30;22.25;;;22.60;42.70;;;;;;5042705;28;20049;-62
2023/05/28 04:30:30;;;;;;;26.60;21.20;;;22.60;42.70;;;;;;5037981;28;20021;-61
2023/05/28 04:32:58;;;;;;;25.52;20.50;;;22.70;42.70;;;;;;5032738;28;20128;-60
2023/05/28 04:35:24;;;;;;;23.17;19.95;;;22.70;42.70;;;;;;5034981;28;20305;-62
2023/05/28 04:37:51;;;;;;;23.38;19.27;;;22.60;42.60;;;;;;5040321;28;20040;-62
2023/05/28 04:40:18;;;;;;;24.33;20.20;;;22.70;42.70;;;;;;5038566;28;20025;-64
2023/05/28 04:42:44;;;;;;;25.17;19.67;;;22.70;42.70;;;;;;5036474;28;20447;-65
2023/05/28 04:45:11;;;;;;;23.55;19.88;;;22.60;42.60;;;;;;5025044;28;20045;-60
2023/05/28 04:47:39;;;;;;;23.92;19.05;;;22.60;42.60;;;;;;5016839;28;20053;-63
2023/05/28 04:50:06;;;;;;;24.00;19.73;;;22.70;42.60;;;;;;5011627;28;20136;-64
2023/05/28 04:52:35;;;;;;;23.05;18.95;;;22.70;42.60;;;;;;5024066;28;20100;-64
2023/05/28 04:55:04;;;;;;;22.77;18.65;;;22.70;42.60;;;;;;5019808;28;20127;-62
2023/05/28 04:57:30;;;;;;;21.60;18.30;;;22.70;42.70;;;;;;5015002;28;20038;-62
2023/05/28 04:59:56;;;;;;;22.80;18.67;;;22.70;42.60;;;;;;5019276;28;20021;-60
2023/05/28 05:02:23;;;;;;;21.65;17.60;;;22.70;42.60;;;;;;5015954;28;20029;-62
2023/05/28 05:04:49;;;;;;;21.30;16.83;;;22.70;42.60;;;;;;5014888;28;20021;-62
2023/05/28 05:07:18;;;;;;;21.08;17.02;;;22.60;42.50;;;;;;5016825;28;20684;-63
2023/05/28 05:09:45;;;;;;;21.60;17.02;;;22.70;42.70;;;;;;5014690;28;20136;-63
2023/05/28 05:12:11;;;;;;;21.08;16.20;;;22.70;42.60;;;;;;5013984;28;20032;-62
2023/05/28 05:14:37;;;;;;;19.20;15.88;;;22.70;42.60;;;;;;5014321;28;20089;-61
2023/05/28 05:17:04;;;;;;;19.85;16.38;;;22.70;42.60;;;;;;5015667;28;20413;-64
2023/05/28 05:19:30;;;;;;;20.35;15.88;;;22.70;42.60;;;;;;5026820;28;20026;-60
2023/05/28 05:21:57;;;;;;;21.90;16.17;;;22.70;42.60;;;;;;5017098;28;20354;-61
2023/05/28 05:24:23;;;;;;;19.75;15.50;;;22.70;42.60;;;;;;5018822;28;20025;-61
2023/05/28 05:26:49;;;;;;;19.25;15.40;;;22.70;42.60;;;;;;5016373;28;20065;-63
2023/05/28 05:29:16;;;;;;;18.83;15.27;;;22.70;42.60;;;;;;5018455;28;20064;-62
2023/05/28 05:31:42;;;;;;;18.08;14.57;;;22.70;42.60;;;;;;5013774;28;20040;-61
2023/05/28 05:34:10;;;;;;;16.55;13.90;;;22.70;42.60;;;;;;5018208;28;20200;-63
2023/05/28 05:36:41;;;;;;;18.20;14.52;;;22.70;42.60;;;;;;5015234;28;20141;-63
2023/05/28 05:39:39;;;;;;;17.15;14.02;;;22.70;42.70;;;;;;5015315;28;20137;-60
2023/05/28 05:42:24;;;;;;;18.50;13.77;;;22.70;42.60;;;;;;5012791;28;20532;-61
2023/05/28 05:44:53;;;;;;;17.88;14.13;;;22.70;42.70;;;;;;5037234;28;20068;-60
2023/05/28 05:47:20;;;;;;;18.10;12.88;;;22.70;42.70;;;;;;5037904;28;20029;-62
2023/05/28 05:49:46;;;;;;;16.65;13.85;;;22.70;42.70;;;;;;5041637;28;20021;-62
2023/05/28 05:52:13;;;;;;;17.48;13.80;;;22.70;42.70;;;;;;5040559;28;20364;-60
2023/05/28 05:54:40;;;;;;;16.00;13.25;;;22.70;42.70;;;;;;5039996;28;20377;-63
2023/05/28 05:57:07;;;;;;;16.33;12.40;;;22.70;42.70;;;;;;5040315;28;20093;-60
2023/05/28 05:59:33;;;;;;;16.63;13.05;;;22.70;42.70;;;;;;5040128;28;20029;-59
2023/05/28 06:01:59;;;;;;;17.33;13.70;;;22.70;42.70;;;;;;5035009;28;20369;-64
2023/05/28 06:04:31;;;;;;;15.35;12.55;;;22.70;42.70;;;;;;5040386;28;20206;-62
2023/05/28 06:07:06;;;;;;;15.38;12.60;;;22.70;42.70;;;;;;5034704;28;20071;-62
2023/05/28 06:09:35;;;;;;;16.63;13.10;;;22.80;42.70;;;;;;5053853;28;20096;-61
2023/05/28 06:12:10;;;;;;;15.82;12.57;;;22.70;42.70;;;;;;5037161;28;20408;-61
2023/05/28 06:14:38;;;;;;;15.90;12.10;;;22.80;42.70;;;;;;5035751;28;20028;-62
2023/05/28 06:17:05;;;;;;;14.48;11.50;;;22.80;42.70;;;;;;5038808;28;20028;-61
2023/05/28 06:19:31;;;;;;;14.88;11.85;;;22.80;42.70;;;;;;5035418;28;20420;-62
2023/05/28 06:21:57;;;;;;;15.15;10.90;;;22.80;42.80;;;;;;5038277;28;20448;-64
2023/05/28 06:24:23;;;;;;;16.90;11.80;;;22.80;42.80;;;;;;5040531;28;20076;-61
2023/05/28 06:26:49;;;;;;;15.55;11.80;;;22.80;42.80;;;;;;5026474;28;20108;-64
2023/05/28 06:29:16;;;;;;;13.48;11.13;;;22.80;42.80;;;;;;5053754;28;20052;-63
2023/05/28 06:31:42;;;;;;;12.95;10.82;;;22.80;42.90;;;;;;5037617;28;21372;-62
2023/05/28 06:34:09;;;;;;;14.30;11.02;;;22.80;42.90;;;;;;5038541;28;20032;-62
2023/05/28 06:36:38;;;;;;;14.35;11.13;;;22.80;42.90;;;;;;5030974;28;20509;-62
2023/05/28 06:39:04;;;;;;;14.57;11.00;;;22.80;42.90;;;;;;5054779;28;20056;-61
2023/05/28 06:41:31;;;;;;;14.75;10.95;;;22.80;43.00;;;;;;5034646;28;20028;-63
2023/05/28 06:43:57;;;;;;;14.50;10.80;;;22.80;43.00;;;;;;5054111;28;20051;-61
2023/05/28 06:46:44;;;;;;;14.40;10.45;;;22.80;43.00;;;;;;5037003;28;20401;-62
2023/05/28 06:49:10;;;;;;;15.45;10.77;;;22.80;43.00;;;;;;5037615;28;20040;-63
2023/05/28 06:51:37;;;;;;;13.45;10.05;;;22.80;43.00;;;;;;5034136;28;20017;-62
2023/05/28 06:54:03;;;;;;;15.00;9.82;;;22.80;43.00;;;;;;5033244;28;20108;-59
2023/05/28 06:56:31;;;;;;;12.98;10.00;;;22.80;43.00;;;;;;5041269;28;20420;-62
2023/05/28 06:59:16;;;;;;;;;;;22.80;43.00;;;;;;5056121;28;20100;-63
2023/05/28 07:02:14;;;;;;;13.35;10.00;;;22.80;43.00;;;;;;5000186;28;19967;-64
2023/05/28 07:05:09;;;;;;;10.98;8.93;;;22.80;42.90;;;;;;5050328;28;20128;-61
2023/05/28 07:07:36;;;;;;;13.05;9.48;;;22.80;42.90;;;;;;5035996;28;20044;-63
2023/05/28 07:10:03;;;;;;;15.68;8.65;;;22.80;42.90;;;;;;5056799;28;20039;-61
2023/05/28 07:12:31;;;;;;;12.00;8.65;;;22.80;42.90;;;;;;5032715;28;20035;-60
2023/05/28 07:14:58;;;;;;;12.18;8.80;;;22.90;43.00;;;;;;5053421;28;20515;-63
2023/05/28 07:17:24;;;;;;;11.65;8.73;;;22.80;43.40;;;;;;5030914;28;20024;-63
2023/05/28 07:19:51;;;;;;;12.73;8.85;;;22.80;43.00;;;;;;5038995;28;20094;-60
2023/05/28 07:22:25;;;;;;;10.55;8.20;;;22.90;43.10;;;;;;5041375;28;20447;-62
2023/05/28 07:24:51;;;;;;;10.52;7.90;;;22.90;43.10;;;;;;5030533;28;20036;-60
2023/05/28 07:27:17;;;;;;;14.90;8.50;;;22.90;43.10;;;;;;5030250;28;20045;-60
2023/05/28 07:29:43;;;;;;;11.45;8.07;;;22.90;43.10;;;;;;5035094;28;20105;-61
2023/05/28 07:32:12;;;;;;;10.90;8.20;;;22.90;43.00;;;;;;5028724;28;20032;-63
2023/05/28 07:34:41;;;;;;;11.63;8.30;;;22.90;43.00;;;;;;5032584;28;20119;-64
2023/05/28 07:37:07;;;;;;;14.70;7.38;;;22.90;43.00;;;;;;5032495;28;20036;-61
2023/05/28 07:39:36;;;;;;;10.63;6.90;;;22.90;43.00;;;;;;5034254;28;20055;-63
2023/05/28 07:42:02;;;;;;;9.07;6.88;;;23.00;43.10;;;;;;5046558;28;20044;-63
2023/05/28 07:44:35;;;;;;;10.55;6.78;;;23.00;43.10;;;;;;5028158;28;20448;-61
2023/05/28 07:47:02;;;;;;;8.93;5.82;;;23.00;43.00;;;;;;5033519;28;20357;-64
2023/05/28 07:49:47;;;;;;;8.18;6.40;;;23.00;43.00;;;;;;5052334;28;20115;-62
2023/05/28 07:52:19;;;;;;;11.57;6.25;;;23.00;42.90;;;;;;5031562;28;20041;-63
2023/05/28 07:54:45;;;;;;;8.93;4.93;;;23.00;42.80;;;;;;5028590;28;20112;-64
2023/05/28 07:57:14;;;;;;;9.15;5.18;;;23.00;42.70;;;;;;5025609;28;20100;-60
2023/05/28 07:59:42;;;;;;;9.40;5.05;;;23.00;42.70;;;;;;5042606;28;20108;-64
2023/05/28 08:02:10;;;;;;;7.32;4.30;;;23.00;42.60;;;;;;5038804;28;20418;-63
2023/05/28 08:04:36;;;;;;;7.90;4.03;;;23.10;42.50;;;;;;5048821;28;20417;-62
2023/05/28 08:07:02;;;;;;;6.78;4.10;;;23.10;42.50;;;;;;5029005;28;20143;-61
2023/05/28 08:09:28;;;;;;;9.27;4.57;;;23.10;42.40;;;;;;5036549;28;20024;-63
2023/05/28 08:11:57;;;;;;;6.05;3.80;;;23.00;42.30;;;;;;5031228;28;20116;-64
2023/05/28 08:14:26;;;;;;;6.43;3.83;;;23.10;42.20;;;;;;5045184;28;20033;-63
2023/05/28 08:16:54;;;;;;;7.20;3.88;;;23.10;42.20;;;;;;5028735;28;20455;-62
2023/05/28 08:19:43;;;;;;;7.72;4.15;;;23.10;42.10;;;;;;5040359;28;20128;-64
2023/05/28 08:22:26;;;;;;;7.07;3.80;;;23.10;42.60;;;;;;5031508;28;20029;-62
2023/05/28 08:24:53;;;;;;;5.68;3.75;;;23.10;41.80;;;;;;5031671;28;20089;-65
2023/05/28 08:27:18;;;;;;;6.10;3.95;;;23.10;41.70;;;;;;5053138;28;20349;-65
2023/05/28 08:29:46;;;;;;;5.28;3.35;;;23.10;41.60;;;;;;5044108;28;20064;-63
2023/05/28 08:32:18;;;;;;;6.22;3.53;;;23.20;41.60;;;;;;5031740;28;20037;-64
2023/05/28 08:34:47;;;;;;;7.45;2.80;;;23.10;41.50;;;;;;5031753;28;20021;-63
2023/05/28 08:37:13;;;;;;;8.25;2.40;;;23.20;41.50;;;;;;5049781;28;20032;-61
2023/05/28 08:40:07;;;;;;;4.45;2.13;;;23.20;41.40;;;;;;5036262;28;20032;-61
2023/05/28 08:42:33;;;;;;;3.08;1.90;;;23.10;41.20;;;;;;5035289;28;20526;-62
2023/05/28 08:44:59;;;;;;;3.90;2.03;;;23.10;41.10;;;;;;5036421;28;20128;-64
2023/05/28 08:47:32;;;;;;;5.05;2.20;;;23.10;41.10;;;;;;5037584;28;20028;-65
2023/05/28 08:50:05;;;;;;;6.07;2.53;;;23.10;41.00;;;;;;5017701;28;20132;-62
2023/05/28 08:52:37;;;;;;;5.30;2.47;;;23.10;41.00;;;;;;5034044;28;20076;-63
2023/05/28 08:55:03;;;;;;;6.97;2.40;;;23.10;41.00;;;;;;5056864;28;20095;-63
2023/05/28 08:57:32;;;;;;;5.10;2.30;;;23.10;41.00;;;;;;5035678;28;20078;-65
2023/05/28 09:00:08;;;;;;;9.35;5.07;;;23.10;41.00;;;;;;5052522;28;20124;-63
2023/05/28 09:02:43;;;;;;;10.65;7.28;;;23.10;41.30;;;;;;5054788;28;20043;-65
2023/05/28 09:05:10;;;;;;;13.88;8.63;;;23.20;42.20;;;;;;5054823;28;20029;-64
2023/05/28 09:07:45;;;;;;;13.15;8.38;;;23.20;43.60;;;;;;5052565;28;20029;-64
2023/05/28 09:10:12;;;;;;;13.38;7.35;;;23.30;44.80;;;;;;5047726;28;20052;-64
2023/05/28 09:12:57;;;;;;;12.57;6.28;;;23.30;45.50;;;;;;5049823;28;20044;-62
2023/05/28 09:15:23;;;;;;;10.82;6.45;;;23.30;45.70;;;;;;5050273;28;20032;-62
2023/05/28 09:17:51;;;;;;;8.70;5.43;;;23.30;45.60;;;;;;5042238;28;20037;-64
2023/05/28 09:20:23;;;;;;;10.10;5.82;;;23.40;45.90;;;;;;5054774;28;20127;-63
2023/05/28 09:23:01;;;;;;;11.73;5.43;;;23.40;45.90;;;;;;5054577;28;20123;-62
2023/05/28 09:25:41;;;;;;;21.27;8.05;;;23.40;45.80;;;;;;5047238;28;20032;-60
2023/05/28 09:28:17;;;;;;;19.00;8.90;;;23.50;45.90;;;;;;5034272;28;20045;-61
2023/05/28 09:30:46;;;;;;;20.80;8.90;;;23.50;46.20;;;;;;5052440;28;20048;-64
2023/05/28 09:33:11;;;;;;;16.73;8.57;;;23.50;46.60;;;;;;5036538;28;20028;-64
2023/05/28 09:35:37;;;;;;;15.68;7.25;;;23.50;47.00;;;;;;5055662;28;20040;-61
2023/05/28 09:38:10;;;;;;;13.20;6.65;;;23.60;47.50;;;;;;5063107;28;20029;-61
2023/05/28 09:40:42;;;;;;;11.40;6.32;;;23.60;47.60;;;;;;5052238;28;20033;-65
2023/05/28 09:43:09;;;;;;;10.77;5.97;;;23.60;47.40;;;;;;5052260;28;20052;-60
2023/05/28 09:45:36;;;;;;;11.90;6.15;;;23.60;47.20;;;;;;5052199;28;20078;-63
2023/05/28 09:48:03;;;;;;;11.68;5.88;;;23.70;47.10;;;;;;5069376;28;20158;-64
2023/05/28 09:50:29;;;;;;;8.88;5.07;;;23.70;47.10;;;;;;5060284;28;20112;-62
2023/05/28 09:52:59;;;;;;;6.40;3.22;;;23.70;47.10;;;;;;5037162;28;20110;-63
2023/05/28 09:55:27;;;;;;;9.48;3.03;;;23.70;46.00;;;;;;5034575;28;20040;-62
2023/05/28 09:58:05;;;;;;;5.30;2.42;;;23.70;44.90;;;;;;5052324;28;20025;-63
2023/05/28 10:00:48;;;;;;;7.05;2.40;;;23.70;44.10;;;;;;5033933;28;20477;-61
2023/05/28 10:03:28;;;;;;;5.93;2.28;;;23.70;44.20;;;;;;5052037;28;20055;-62
2023/05/28 10:06:01;;;;;;;4.28;2.22;;;23.60;43.20;;;;;;5060239;28;20036;-64
2023/05/28 10:08:27;;;;;;;6.65;2.50;;;23.60;43.10;;;;;;5060841;28;20033;-63
2023/05/28 10:10:54;;;;;;;5.22;2.28;;;23.60;43.10;;;;;;5035064;28;20036;-62
2023/05/28 10:13:24;;;;;;;4.32;1.90;;;23.60;43.10;;;;;;5035395;28;20104;-61
2023/05/28 10:15:51;;;;;;;5.47;2.20;;;23.60;42.90;;;;;;5051439;28;20381;-62
2023/05/28 10:18:19;;;;;;;3.75;2.35;;;23.60;42.70;;;;;;5061154;28;20118;-63
2023/05/28 10:20:46;;;;;;;3.03;1.90;;;23.70;42.70;;;;;;5071787;28;20038;-62
2023/05/28 10:23:13;;;;;;;5.03;2.28;;;23.70;42.50;;;;;;5069826;28;20043;-63
2023/05/28 10:25:40;;;;;;;4.32;2.17;;;23.70;42.50;;;;;;5071741;28;20116;-61
2023/05/28 10:28:06;;;;;;;4.75;2.63;;;23.70;42.40;;;;;;5071369;28;20036;-62
2023/05/28 10:30:36;;;;;;;3.35;1.90;;;23.70;42.40;;;;;;5035328;28;20041;-65
2023/05/28 10:33:08;;;;;;;3.83;2.38;;;23.70;42.40;;;;;;5065710;28;20455;-59
2023/05/28 10:35:35;;;;;;;4.22;1.85;;;23.80;42.40;;;;;;5053396;28;20060;-59
2023/05/28 10:38:11;;;;;;;5.18;2.63;;;23.80;42.20;;;;;;5071239;28;20444;-61
2023/05/28 10:40:39;;;;;;;5.18;2.40;;;23.80;42.10;;;;;;5049124;28;20415;-60
2023/05/28 10:43:26;;;;;;;3.95;2.00;;;23.80;42.00;;;;;;5051563;28;20021;-62
2023/05/28 10:45:56;;;;;;;3.97;2.10;;;23.80;42.00;;;;;;5011315;28;20431;-57
2023/05/28 10:48:22;;;;;;;3.40;1.92;;;23.80;41.80;;;;;;5010891;28;20388;-62
2023/05/28 10:51:00;;;;;;;3.83;2.22;;;23.90;41.80;;;;;;5011513;28;20100;-64
2023/05/28 10:53:27;;;;;;;3.30;2.00;;;23.90;41.70;;;;;;5010250;28;20045;-61
2023/05/28 10:55:54;;;;;;;2.80;1.63;;;23.90;41.70;;;;;;5012999;28;20041;-62
2023/05/28 10:58:32;;;;;;;4.15;1.85;;;23.90;41.70;;;;;;5014342;28;20075;-61
2023/05/28 11:01:10;;;;;;;4.43;2.20;;;23.90;41.70;;;;;;5020115;28;20026;-62
2023/05/28 11:03:44;;;;;;;3.20;1.80;;;23.90;41.60;;;;;;5012338;28;20049;-59
2023/05/28 11:06:11;;;;;;;3.55;1.83;;;24.00;41.50;;;;;;5029010;28;20037;-62
2023/05/28 11:08:43;;;;;;;4.05;2.17;;;24.00;41.50;;;;;;5029000;28;20303;-60
2023/05/28 11:11:14;;;;;;;3.30;1.83;;;24.00;41.40;;;;;;5017715;28;20131;-59
2023/05/28 11:13:43;;;;;;;2.42;1.65;;;24.00;41.40;;;;;;5010873;28;20117;-63
2023/05/28 11:16:10;;;;;;;3.00;1.75;;;24.00;41.30;;;;;;5015779;28;20095;-59
2023/05/28 11:18:37;;;;;;;4.97;2.10;;;24.00;41.30;;;;;;5019815;28;20451;-59
2023/05/28 11:21:08;;;;;;;3.38;1.92;;;24.00;41.30;;;;;;5028387;28;20143;-62
2023/05/28 11:23:39;;;;;;;5.50;1.80;;;24.00;41.30;;;;;;5019470;28;20065;-62
2023/05/28 11:26:20;;;;;;;4.07;1.92;;;24.00;41.30;;;;;;5019814;28;20034;-64
2023/05/28 11:28:50;;;;;;;3.13;1.70;;;24.00;41.30;;;;;;5018288;28;20040;-61
2023/05/28 11:31:17;;;;;;;2.72;1.70;;;24.10;41.20;;;;;;5014780;28;20100;-57
2023/05/28 11:33:44;;;;;;;3.22;1.67;;;24.10;41.20;;;;;;5029197;28;20059;-61
2023/05/28 11:36:13;;;;;;;4.10;1.67;;;24.10;41.10;;;;;;5026988;28;20037;-59
2023/05/28 11:38:39;;;;;;;4.13;2.00;;;24.10;41.10;;;;;;5014166;28;20030;-65
2023/05/28 11:41:06;;;;;;;3.83;1.70;;;24.10;41.00;;;;;;5021314;28;20119;-64
2023/05/28 11:43:32;;;;;;;3.58;2.08;;;24.10;40.90;;;;;;5019395;28;20025;-60
2023/05/28 11:45:59;;;;;;;3.38;1.67;;;24.10;40.90;;;;;;5067907;28;20047;-62
2023/05/28 11:48:27;;;;;;;4.10;1.65;;;24.10;40.80;;;;;;5035273;28;20056;-58
2023/05/28 11:51:02;;;;;;;2.53;1.65;;;24.10;40.70;;;;;;5064578;28;20099;-61
2023/05/28 11:53:41;;;;;;;3.33;1.35;;;24.20;40.70;;;;;;5059807;28;20032;-63
2023/05/28 11:56:12;;;;;;;3.55;1.60;;;24.20;40.60;;;;;;5052466;28;20033;-61
2023/05/28 11:58:44;;;;;;;3.90;1.50;;;24.20;40.50;;;;;;5053189;28;20047;-61
2023/05/28 12:01:15;;;;;;;3.65;1.70;;;24.20;40.60;;;;;;5037462;28;20457;-62
2023/05/28 12:03:42;;;;;;;2.25;1.48;;;24.20;40.50;;;;;;5039338;28;20037;-62
2023/05/28 12:06:08;;;;;;;3.10;1.65;;;24.20;40.50;;;;;;5058304;28;20144;-61
2023/05/28 12:08:37;;;;;;;3.25;1.73;;;24.20;40.40;;;;;;5060480;28;20056;-62
2023/05/28 12:11:03;;;;;;;2.58;1.77;;;24.20;40.40;;;;;;5052807;28;20108;-62
2023/05/28 12:13:33;;;;;;;3.22;1.55;;;24.30;40.40;;;;;;5037988;28;20048;-64
2023/05/28 12:16:07;;;;;;;3.60;1.88;;;24.30;40.40;;;;;;5056809;28;20040;-62
2023/05/28 12:18:33;;;;;;;4.57;1.98;;;24.30;40.40;;;;;;5064483;28;20120;-59
2023/05/28 12:20:59;;;;;;;3.35;1.67;;;24.30;40.30;;;;;;5060060;28;20037;-63
2023/05/28 12:23:25;;;;;;;2.92;1.40;;;24.30;40.20;;;;;;5063130;28;20029;-61
2023/05/28 12:25:52;;;;;;;3.92;1.90;;;24.30;40.00;;;;;;5058953;28;20332;-61
2023/05/28 12:28:20;;;;;;;3.88;1.80;;;24.30;39.90;;;;;;5046480;28;20359;-62
2023/05/28 12:30:50;;;;;;;3.95;2.10;;;24.30;39.80;;;;;;5060714;28;20055;-61
2023/05/28 12:33:16;;;;;;;3.08;1.55;;;24.30;39.70;;;;;;5054582;28;20181;-65
2023/05/28 12:35:42;;;;;;;2.95;1.88;;;24.30;39.60;;;;;;5059475;28;20024;-62
2023/05/28 12:38:09;;;;;;;3.53;1.77;;;24.30;39.50;;;;;;5061371;28;20024;-59
2023/05/28 12:40:34;;;;;;;3.38;1.80;;;24.30;39.30;;;;;;5063349;28;20073;-62
2023/05/28 12:43:01;;;;;;;3.20;1.80;;;24.30;39.20;;;;;;5050610;28;20059;-60